Harelbeke, Belgium
Current Conditions -  °F | °C
As of 9:30 AM on Saturday 22 Nov 2014 (Local Time) from LFQQ Reporting Station
Clear Clear  
Wind Chill: 43°   Ceiling: Unl
Heat Index: 46°   Visibility: 4mi
Dew Point: 45°   Wind: 7mph
Humidity: 93%   Direction: 150°SSE
Pressure: 30"   Gusts: NA
Location:  50.85°N, 3.31°E
Report Text: LFQQ 220830Z 15006KT 7000 NSC 08/07 Q1016 NOSIG
Loading
Personal Weather Stations






























Interactive Weather Map New forecast layout! Learn more

10-Day Weather Forecast

Advertisements
Track Severe Weather on mobile